Ceylon — 9VMU6 — position and weather

sailwx.info

Track history (hours):
 
Tides and Currents Weather Stations Pressure Air Temp Water Temp Dewpoint Dewpoint Depression Visibility Wind Speed Wind Dir Waves Ship Positions

Ceylon

Last reported at 2015-May-27 16:32 UTC. Time now 2015-May-29 18:30 UTC.
Position S 23°48' W 041°33'.

Length 180 m; draft 11 m.

Type: Tanker. MMSI: 563847000.

Date/timePositionNaut miles runAvg speedWind from/ knotsBaromVisibWave heightAir tempDewpointWater temp
2015-May-27 16:32S 23°48' W 041°33'265 5.6
2015-May-25 17:28S 23°55' W 046°22'0 0.0
2015-May-25 16:25S 23°55' W 046°22'0 0.0
2015-May-25 15:28S 23°55' W 046°22'0 0.0
2015-May-25 14:31S 23°55' W 046°22'0 0.0
2015-May-25 13:25S 23°55' W 046°22'0 0.0
2015-May-25 12:19S 23°55' W 046°22'0 0.0
2015-May-25 11:31S 23°55' W 046°22'0 0.0
2015-May-25 10:28S 23°55' W 046°22'0 0.0
2015-May-25 09:32S 23°55' W 046°22'4 4.3
2015-May-25 08:33S 23°57' W 046°18'6 6.5
2015-May-25 07:33S 24°04' W 046°20'1 0.5
2015-May-25 06:33S 24°04' W 046°20'0 0.0
2015-May-25 05:33S 24°04' W 046°20'0 0.0
2015-May-25 04:33S 24°04' W 046°20'0 0.0
2015-May-25 03:30S 24°04' W 046°20'0 0.0
2015-May-25 02:33S 24°04' W 046°20'0 0.1
2015-May-25 01:30S 24°04' W 046°20'0 0.0
2015-May-25 00:33S 24°04' W 046°20'0 0.0
2015-May-24 23:30S 24°04' W 046°20'0 0.0
2015-May-24 22:33S 24°04' W 046°20'0 0.0
2015-May-24 21:30S 24°04' W 046°20'0 0.0
2015-May-24 20:30S 24°04' W 046°20'0 0.0
2015-May-24 19:30S 24°04' W 046°20'0 0.0
2015-May-24 18:27S 24°04' W 046°20'0 0.0
2015-May-24 17:30S 24°04' W 046°20'0 0.0
2015-May-24 16:33S 24°04' W 046°20'0 0.0
2015-May-24 15:27S 24°04' W 046°20'0 0.0
2015-May-24 14:27S 24°04' W 046°20'0 0.0
2015-May-24 13:30S 24°04' W 046°20'0 0.1
2015-May-24 12:27S 24°04' W 046°20'0 0.0
2015-May-24 11:27S 24°04' W 046°20'0 0.0
2015-May-24 10:18S 24°04' W 046°20'0 0.0
2015-May-24 09:33S 24°04' W 046°20'0 0.1
2015-May-24 08:30S 24°04' W 046°20'0 0.0
2015-May-24 07:21S 24°04' W 046°20'0 0.0
2015-May-24 06:33S 24°04' W 046°20'0 0.0
2015-May-24 05:30S 24°04' W 046°20'0 0.0
2015-May-24 04:30S 24°04' W 046°20'0 0.0
2015-May-24 03:30S 24°04' W 046°20'0 0.0
2015-May-24 02:30S 24°04' W 046°20'0 0.0
2015-May-24 01:18S 24°04' W 046°20'0 0.0
2015-May-24 00:27S 24°04' W 046°20'0 0.0
2015-May-23 23:33S 24°04' W 046°20'0 0.0
2015-May-23 22:30S 24°04' W 046°20'0 0.0
2015-May-23 21:27S 24°04' W 046°20'0 0.0
2015-May-23 20:30S 24°04' W 046°20'0 0.0
2015-May-23 19:18S 24°04' W 046°20'0 0.0
2015-May-23 18:33S 24°04' W 046°20'0 0.0
2015-May-23 17:33S 24°04' W 046°20'0 0.0
2015-May-23 16:30S 24°04' W 046°20'0 0.0
2015-May-23 15:33S 24°04' W 046°20'0 0.0
2015-May-23 14:24S 24°04' W 046°20'0 0.0
2015-May-23 13:33S 24°04' W 046°20'0 0.0
2015-May-23 12:24S 24°04' W 046°20'0 0.0
2015-May-23 11:27S 24°04' W 046°20'0 0.0
2015-May-23 10:30S 24°04' W 046°20'0 0.0
2015-May-23 09:30S 24°04' W 046°20'0 0.0
2015-May-23 08:33S 24°04' W 046°20'0 0.1
2015-May-23 07:24S 24°04' W 046°20'0 0.0
2015-May-23 06:33S 24°04' W 046°20'0 0.0
2015-May-23 05:30S 24°04' W 046°20'0 0.0
2015-May-23 04:33S 24°04' W 046°20'0 0.0
2015-May-23 03:33S 24°04' W 046°20'0 0.0
2015-May-23 02:30S 24°04' W 046°20'0 0.0
2015-May-23 01:30S 24°04' W 046°20'0 0.0
2015-May-23 00:30S 24°04' W 046°20'0 0.0
2015-May-22 23:33S 24°04' W 046°20'0 0.0
2015-May-22 22:33S 24°04' W 046°20'0 0.0
2015-May-22 21:33S 24°04' W 046°20'0 0.0
2015-May-22 20:30S 24°04' W 046°20'0 0.0
2015-May-22 19:30S 24°04' W 046°20'0 0.0
2015-May-22 18:18S 24°04' W 046°20'0 0.0
2015-May-22 17:30S 24°04' W 046°20'0 0.0
2015-May-22 16:27S 24°04' W 046°20'0 0.0
2015-May-22 15:24S 24°04' W 046°20'0 0.0
2015-May-22 14:30S 24°04' W 046°20'0 0.0
2015-May-22 13:33S 24°04' W 046°20'0 0.1
2015-May-22 12:27S 24°04' W 046°20'0 0.1
2015-May-22 11:33S 24°04' W 046°20'1 0.9
2015-May-22 10:33S 24°05' W 046°19'8 7.9
2015-May-22 09:33S 24°05' W 046°10'1211.9
2015-May-22 08:33S 24°03' W 045°58'1212.3
2015-May-22 07:33S 23°59' W 045°45'  
Track history (hours):
 
Tides and Currents Weather Stations Pressure Air Temp Water Temp Dewpoint Dewpoint Depression Visibility Wind Speed Wind Dir Waves Ship Positions

Ceylon

Last reported at 2015-May-27 16:32 UTC. Time now 2015-May-29 18:30 UTC.
Position S 23°48' W 041°33'.

Length 180 m; draft 11 m.

Type: Tanker. MMSI: 563847000.

Date/timePositionNaut miles runAvg speedWind from/ knotsBaromVisibWave heightAir tempDewpointWater temp
2015-May-27 16:32S 23°48' W 041°33'265 5.6
2015-May-25 17:28S 23°55' W 046°22'0 0.0
2015-May-25 16:25S 23°55' W 046°22'0 0.0
2015-May-25 15:28S 23°55' W 046°22'0 0.0
2015-May-25 14:31S 23°55' W 046°22'0 0.0
2015-May-25 13:25S 23°55' W 046°22'0 0.0
2015-May-25 12:19S 23°55' W 046°22'0 0.0
2015-May-25 11:31S 23°55' W 046°22'0 0.0
2015-May-25 10:28S 23°55' W 046°22'0 0.0
2015-May-25 09:32S 23°55' W 046°22'4 4.3
2015-May-25 08:33S 23°57' W 046°18'6 6.5
2015-May-25 07:33S 24°04' W 046°20'1 0.5
2015-May-25 06:33S 24°04' W 046°20'0 0.0
2015-May-25 05:33S 24°04' W 046°20'0 0.0
2015-May-25 04:33S 24°04' W 046°20'0 0.0
2015-May-25 03:30S 24°04' W 046°20'0 0.0
2015-May-25 02:33S 24°04' W 046°20'0 0.1
2015-May-25 01:30S 24°04' W 046°20'0 0.0
2015-May-25 00:33S 24°04' W 046°20'0 0.0
2015-May-24 23:30S 24°04' W 046°20'0 0.0
2015-May-24 22:33S 24°04' W 046°20'0 0.0
2015-May-24 21:30S 24°04' W 046°20'0 0.0
2015-May-24 20:30S 24°04' W 046°20'0 0.0
2015-May-24 19:30S 24°04' W 046°20'0 0.0
2015-May-24 18:27S 24°04' W 046°20'0 0.0
2015-May-24 17:30S 24°04' W 046°20'0 0.0
2015-May-24 16:33S 24°04' W 046°20'0 0.0
2015-May-24 15:27S 24°04' W 046°20'0 0.0
2015-May-24 14:27S 24°04' W 046°20'0 0.0
2015-May-24 13:30S 24°04' W 046°20'0 0.1
2015-May-24 12:27S 24°04' W 046°20'0 0.0
2015-May-24 11:27S 24°04' W 046°20'0 0.0
2015-May-24 10:18S 24°04' W 046°20'0 0.0
2015-May-24 09:33S 24°04' W 046°20'0 0.1
2015-May-24 08:30S 24°04' W 046°20'0 0.0
2015-May-24 07:21S 24°04' W 046°20'0 0.0
2015-May-24 06:33S 24°04' W 046°20'0 0.0
2015-May-24 05:30S 24°04' W 046°20'0 0.0
2015-May-24 04:30S 24°04' W 046°20'0 0.0
2015-May-24 03:30S 24°04' W 046°20'0 0.0
2015-May-24 02:30S 24°04' W 046°20'0 0.0
2015-May-24 01:18S 24°04' W 046°20'0 0.0
2015-May-24 00:27S 24°04' W 046°20'0 0.0
2015-May-23 23:33S 24°04' W 046°20'0 0.0
2015-May-23 22:30S 24°04' W 046°20'0 0.0
2015-May-23 21:27S 24°04' W 046°20'0 0.0
2015-May-23 20:30S 24°04' W 046°20'0 0.0
2015-May-23 19:18S 24°04' W 046°20'0 0.0
2015-May-23 18:33S 24°04' W 046°20'0 0.0
2015-May-23 17:33S 24°04' W 046°20'0 0.0
2015-May-23 16:30S 24°04' W 046°20'0 0.0
2015-May-23 15:33S 24°04' W 046°20'0 0.0
2015-May-23 14:24S 24°04' W 046°20'0 0.0
2015-May-23 13:33S 24°04' W 046°20'0 0.0
2015-May-23 12:24S 24°04' W 046°20'0 0.0
2015-May-23 11:27S 24°04' W 046°20'0 0.0
2015-May-23 10:30S 24°04' W 046°20'0 0.0
2015-May-23 09:30S 24°04' W 046°20'0 0.0
2015-May-23 08:33S 24°04' W 046°20'0 0.1
2015-May-23 07:24S 24°04' W 046°20'0 0.0
2015-May-23 06:33S 24°04' W 046°20'0 0.0
2015-May-23 05:30S 24°04' W 046°20'0 0.0
2015-May-23 04:33S 24°04' W 046°20'0 0.0
2015-May-23 03:33S 24°04' W 046°20'0 0.0
2015-May-23 02:30S 24°04' W 046°20'0 0.0
2015-May-23 01:30S 24°04' W 046°20'0 0.0
2015-May-23 00:30S 24°04' W 046°20'0 0.0
2015-May-22 23:33S 24°04' W 046°20'0 0.0
2015-May-22 22:33S 24°04' W 046°20'0 0.0
2015-May-22 21:33S 24°04' W 046°20'0 0.0
2015-May-22 20:30S 24°04' W 046°20'0 0.0
2015-May-22 19:30S 24°04' W 046°20'0 0.0
2015-May-22 18:18S 24°04' W 046°20'0 0.0
2015-May-22 17:30S 24°04' W 046°20'0 0.0
2015-May-22 16:27S 24°04' W 046°20'0 0.0
2015-May-22 15:24S 24°04' W 046°20'0 0.0
2015-May-22 14:30S 24°04' W 046°20'0 0.0
2015-May-22 13:33S 24°04' W 046°20'0 0.1
2015-May-22 12:27S 24°04' W 046°20'0 0.1
2015-May-22 11:33S 24°04' W 046°20'1 0.9
2015-May-22 10:33S 24°05' W 046°19'8 7.9
2015-May-22 09:33S 24°05' W 046°10'1211.9
2015-May-22 08:33S 24°03' W 045°58'1212.3
2015-May-22 07:33S 23°59' W 045°45'  

Dump ship's entire track history